Time;durP1;ratioP1;P1;durP2;ratioP2;P2;SDS_P1;SDS_P2;PMS_P1;PMS_P2;Temp;Humidity;BMP_temperature;BMP_pressure;BME280_temperature;BME280_humidity;BME280_pressure;Samples;Min_cycle;Max_cycle;Signal;HPM_P1;HPM_P2
2023/03/13 00:01:28;;;;;;;20.92;3.53;;;;;;;13.63;56.57;100223.84;4878964;28;114977;-75
2023/03/13 00:03:55;;;;;;;18.27;3.72;;;;;;;13.63;56.48;100221.19;4878255;28;123982;-75
2023/03/13 00:06:25;;;;;;;18.20;3.45;;;;;;;13.61;56.61;100218.63;4886376;28;123427;-75
2023/03/13 00:08:53;;;;;;;17.90;3.45;;;;;;;13.61;56.68;100209.78;4882009;28;114249;-75
2023/03/13 00:11:20;;;;;;;18.00;3.20;;;;;;;13.59;56.74;100195.75;4887961;28;113145;-75
2023/03/13 00:13:47;;;;;;;18.55;3.38;;;;;;;13.59;56.78;100195.75;4879667;28;123723;-75
2023/03/13 00:16:15;;;;;;;15.90;3.35;;;;;;;13.59;56.90;100187.78;4881766;28;124665;-75
2023/03/13 00:18:47;;;;;;;19.08;3.33;;;;;;;13.58;57.05;100183.38;4889041;28;114239;-75
2023/03/13 00:21:16;;;;;;;13.07;3.03;;;;;;;13.58;57.00;100172.75;4878823;28;115125;-75
2023/03/13 00:23:43;;;;;;;16.33;3.40;;;;;;;13.57;57.18;100173.72;4883181;28;124018;-74
2023/03/13 00:26:12;;;;;;;15.10;3.13;;;;;;;13.57;57.19;100165.75;4879361;28;123621;-76
2023/03/13 00:28:41;;;;;;;15.63;3.22;;;;;;;13.56;57.26;100164.03;4885000;28;114061;-76
2023/03/13 00:31:29;;;;;;;15.90;3.60;;;;;;;13.54;57.44;100155.28;4891627;28;114219;-76
2023/03/13 00:33:59;;;;;;;16.35;3.30;;;;;;;13.52;57.55;100146.56;4880912;28;123841;-76
2023/03/13 00:36:28;;;;;;;16.92;3.50;;;;;;;13.51;57.58;100139.56;4888352;28;124227;-76
2023/03/13 00:38:57;;;;;;;14.52;3.30;;;;;;;13.50;57.97;100137.84;4870140;28;114256;-76
2023/03/13 00:41:30;;;;;;;18.10;3.50;;;;;;;13.48;58.15;100139.75;4886602;28;114060;-76
2023/03/13 00:43:57;;;;;;;16.15;3.25;;;;;;;13.47;58.00;100138.03;4868301;28;122298;-76
2023/03/13 00:46:27;;;;;;;20.13;3.40;;;;;;;13.44;58.09;100129.31;4886696;28;123778;-76
2023/03/13 00:48:54;;;;;;;10.73;2.90;;;;;;;13.43;58.38;100127.63;4883080;28;113182;-76
2023/03/13 00:51:25;;;;;;;18.10;3.40;;;;;;;13.42;58.54;100122.41;4884634;28;113840;-76
2023/03/13 00:53:59;;;;;;;16.70;3.30;;;;;;;13.40;58.60;100119.84;4880960;28;123713;-76
2023/03/13 00:56:27;;;;;;;16.45;3.40;;;;;;;13.38;58.63;100107.63;4878438;28;123880;-76
2023/03/13 00:58:54;;;;;;;20.58;3.65;;;;;;;13.35;58.81;100102.50;4886545;28;113996;-76
2023/03/13 01:01:28;;;;;;;15.60;3.08;;;;;;;13.31;59.07;100093.88;4883713;28;114285;-76
2023/03/13 01:03:58;;;;;;;16.63;3.35;;;;;;;13.31;59.18;100085.91;4885601;28;122580;-77
2023/03/13 01:06:28;;;;;;;20.25;3.78;;;;;;;13.29;59.32;100081.63;4883066;28;124382;-76
2023/03/13 01:08:57;;;;;;;24.38;3.88;;;;;;;13.27;59.32;100081.72;4878809;28;115385;-77
2023/03/13 01:11:29;;;;;;;21.05;4.00;;;;;;;13.27;59.58;100072.91;4879621;28;115286;-76
2023/03/13 01:13:58;;;;;;;17.20;3.40;;;;;;;13.25;59.65;100063.22;4884805;28;125098;-76
2023/03/13 01:16:28;;;;;;;19.02;3.38;;;;;;;13.27;59.80;100062.25;4881392;28;124278;-76
2023/03/13 01:18:59;;;;;;;14.50;3.00;;;;;;;13.26;59.87;100050.78;4881343;28;115027;-76
2023/03/13 01:21:26;;;;;;;14.40;2.90;;;;;;;13.27;59.83;100041.84;4877333;28;113011;-76
2023/03/13 01:23:55;;;;;;;19.30;3.50;;;;;;;13.27;59.92;100036.50;4882475;28;124216;-77
2023/03/13 01:26:24;;;;;;;17.48;3.50;;;;;;;13.26;60.13;100024.19;4880676;28;124558;-76
2023/03/13 01:28:51;;;;;;;18.70;3.15;;;;;;;13.28;60.27;100021.41;4881545;28;113359;-76
2023/03/13 01:31:24;;;;;;;17.40;2.95;;;;;;;13.28;60.38;100011.63;4886529;28;112079;-76
2023/03/13 01:33:57;;;;;;;15.68;2.95;;;;;;;13.30;60.53;100007.09;4888843;28;124195;-77
2023/03/13 01:36:26;;;;;;;13.25;3.10;;;;;;;13.31;60.56;100011.44;4884540;28;123137;-77
2023/03/13 01:38:55;;;;;;;13.55;2.83;;;;;;;13.32;60.75;99997.19;4881996;28;113499;-76
2023/03/13 01:41:24;;;;;;;16.23;3.35;;;;;;;13.33;60.74;99993.56;4885198;28;115284;-76
2023/03/13 01:43:52;;;;;;;19.13;3.00;;;;;;;13.33;60.82;99982.94;4882233;28;123219;-76
2023/03/13 01:46:23;;;;;;;16.40;3.00;;;;;;;13.35;61.01;99978.34;4883743;28;124164;-76
2023/03/13 01:49:23;;;;;;;13.23;2.50;;;;;;;13.35;61.01;99985.47;4885789;28;113537;-76
2023/03/13 01:52:07;;;;;;;12.80;2.70;;;;;;;13.37;61.31;99973.78;4887497;28;113696;-76
2023/03/13 01:54:49;;;;;;;13.32;2.95;;;;;;;13.40;61.29;99968.25;4869074;28;122340;-75
2023/03/13 01:57:26;;;;;;;13.85;3.25;;;;;;;13.42;61.40;99955.69;4881411;28;123543;-76
2023/03/13 01:59:59;;;;;;;11.85;2.70;;;;;;;13.44;61.43;99945.78;4881574;28;115178;-77
2023/03/13 02:02:28;;;;;;;11.27;2.83;;;;;;;13.47;61.50;99936.75;4885496;28;113641;-76
2023/03/13 02:05:00;;;;;;;15.40;3.22;;;;;;;13.49;61.67;99933.97;4867804;28;124151;-76
2023/03/13 02:07:32;;;;;;;16.38;2.97;;;;;;;13.51;61.66;99932.06;4877834;28;124695;-77
2023/03/13 02:10:00;;;;;;;12.77;2.70;;;;;;;13.54;61.59;99934.47;4884086;28;113470;-76
2023/03/13 02:12:32;;;;;;;10.20;2.78;;;;;;;13.56;61.91;99919.25;4869013;28;113724;-77
2023/03/13 02:15:08;;;;;;;11.10;2.95;;;;;;;13.58;61.88;99901.38;4873467;28;124259;-76
2023/03/13 02:17:37;;;;;;;8.40;2.50;;;;;;;13.60;62.03;99899.47;4886530;28;123604;-76
2023/03/13 02:20:04;;;;;;;11.90;2.55;;;;;;;13.63;62.00;99899.22;4885019;28;115068;-77
2023/03/13 02:22:52;;;;;;;13.35;2.67;;;;;;;13.65;62.14;99891.97;4885606;28;113362;-77
2023/03/13 02:25:50;;;;;;;10.70;2.72;;;;;;;13.68;62.34;99886.44;4895204;28;123977;-76
2023/03/13 02:28:32;;;;;;;10.18;2.47;;;;;;;13.72;62.19;99876.44;4884417;28;125355;-76
2023/03/13 02:31:01;;;;;;;10.68;2.58;;;;;;;13.75;62.38;99871.72;4882838;28;115306;-76
2023/03/13 02:33:34;;;;;;;9.15;2.40;;;;;;;13.79;62.44;99856.38;4886243;28;113325;-77
2023/03/13 02:36:02;;;;;;;9.55;2.90;;;;;;;13.83;62.49;99853.38;4881527;28;124350;-76
2023/03/13 02:38:33;;;;;;;9.27;2.92;;;;;;;13.88;62.54;99838.88;4881736;28;124720;-76
2023/03/13 02:41:03;;;;;;;8.50;2.60;;;;;;;13.91;62.60;99830.66;4883113;28;114754;-76
2023/03/13 02:43:34;;;;;;;8.98;2.47;;;;;;;13.97;62.63;99822.19;4862669;28;113694;-76
2023/03/13 02:46:12;;;;;;;9.05;3.22;;;;;;;14.01;62.67;99818.34;4882502;28;123307;-76
2023/03/13 02:48:51;;;;;;;6.45;2.83;;;;;;;14.03;62.57;99821.72;4876625;28;123689;-76
2023/03/13 02:51:40;;;;;;;9.93;2.50;;;;;;;14.07;62.78;99838.31;4858799;28;115052;-76
2023/03/13 02:54:12;;;;;;;8.27;2.83;;;;;;;14.10;62.78;99827.44;4886515;28;114906;-76
2023/03/13 02:56:44;;;;;;;10.32;2.85;;;;;;;14.13;62.85;99822.75;4862661;28;124225;-76
2023/03/13 02:59:12;;;;;;;7.88;2.90;;;;;;;14.18;62.92;99825.03;4877400;28;123639;-76
2023/03/13 03:01:42;;;;;;;8.70;2.33;;;;;;;14.20;62.60;99829.31;4879493;28;113541;-77
2023/03/13 03:04:09;;;;;;;7.65;2.70;;;;;;;14.22;62.74;99837.16;4874283;28;113325;-77
2023/03/13 03:06:37;;;;;;;6.28;2.75;;;;;;;14.24;62.67;99823.72;4886715;28;123525;-76
2023/03/13 03:09:04;;;;;;;7.97;2.90;;;;;;;14.27;62.97;99823.50;4879420;28;123066;-77
2023/03/13 03:11:34;;;;;;;5.75;2.90;;;;;;;14.30;62.93;99828.59;4877101;28;114739;-76
2023/03/13 03:14:07;;;;;;;6.05;2.80;;;;;;;14.32;63.14;99837.31;4892313;28;114134;-76
2023/03/13 03:16:38;;;;;;;8.60;3.33;;;;;;;14.35;63.26;99826.41;4886307;28;123394;-76
2023/03/13 03:19:06;;;;;;;8.52;3.22;;;;;;;14.39;63.31;99838.53;4877616;28;123021;-76
2023/03/13 03:21:33;;;;;;;7.65;3.65;;;;;;;14.41;63.03;99832.13;4882025;28;113903;-76
2023/03/13 03:24:01;;;;;;;8.00;3.45;;;;;;;14.45;63.36;99826.53;4884828;28;114180;-76
2023/03/13 03:26:29;;;;;;;7.40;3.40;;;;;;;14.47;63.23;99813.97;4879053;28;123368;-76
2023/03/13 03:28:56;;;;;;;8.98;4.03;;;;;;;14.51;63.37;99815.44;4886183;28;124393;-75
2023/03/13 03:31:23;;;;;;;7.80;3.90;;;;;;;14.53;63.25;99824.97;4886344;28;113457;-75
2023/03/13 03:33:51;;;;;;;5.38;3.55;;;;;;;14.55;63.24;99823.03;4874540;28;114019;-76
2023/03/13 03:36:21;;;;;;;8.75;3.67;;;;;;;14.57;63.27;99814.97;4867961;28;124842;-76
2023/03/13 03:38:49;;;;;;;6.93;4.00;;;;;;;14.58;63.42;99812.19;4890139;28;123110;-76
2023/03/13 03:41:20;;;;;;;6.40;4.18;;;;;;;14.62;63.57;99811.94;4884980;28;117309;-76
2023/03/13 03:43:48;;;;;;;8.35;4.00;;;;;;;14.64;63.59;99807.34;4887318;28;115368;-76
2023/03/13 03:46:18;;;;;;;9.43;4.22;;;;;;;14.66;63.57;99808.09;4885642;28;123886;-76
2023/03/13 03:48:45;;;;;;;7.07;4.53;;;;;;;14.70;63.69;99804.19;4872108;28;124702;-76
2023/03/13 03:51:13;;;;;;;6.85;4.28;;;;;;;14.72;63.66;99794.25;4883185;28;113472;-76
2023/03/13 03:53:42;;;;;;;6.20;4.32;;;;;;;14.74;63.91;99800.31;4870943;28;115099;-76
2023/03/13 03:56:09;;;;;;;7.50;4.20;;;;;;;14.77;63.70;99794.75;4869523;28;122730;-76
2023/03/13 03:58:42;;;;;;;9.75;4.07;;;;;;;14.80;63.67;99810.50;4874073;28;123568;-76
2023/03/13 04:01:15;;;;;;;10.35;4.05;;;;;;;14.82;63.74;99800.53;4886317;28;114003;-76
2023/03/13 04:03:42;;;;;;;6.07;4.10;;;;;;;14.85;63.76;99800.31;4878363;28;114197;-76
2023/03/13 04:06:11;;;;;;;6.47;4.13;;;;;;;14.87;63.82;99801.03;4881330;28;124209;-76
2023/03/13 04:08:39;;;;;;;5.85;4.13;;;;;;;14.88;63.70;99802.75;4879823;28;123332;-76
2023/03/13 04:11:07;;;;;;;7.47;3.65;;;;;;;14.91;63.91;99791.81;4880979;28;114573;-77
2023/03/13 04:13:38;;;;;;;5.63;3.65;;;;;;;14.92;63.98;99782.88;4884776;28;114289;-76
2023/03/13 04:16:06;;;;;;;5.05;3.95;;;;;;;14.94;64.08;99780.91;4884902;28;125152;-76
2023/03/13 04:18:34;;;;;;;5.10;3.70;;;;;;;14.97;64.07;99777.16;4886489;28;123373;-76
2023/03/13 04:21:04;;;;;;;5.30;3.65;;;;;;;15.01;63.97;99785.75;4885707;28;113716;-76
2023/03/13 04:23:58;;;;;;;4.70;3.63;;;;;;;15.02;63.89;99776.78;4886124;28;113693;-75
2023/03/13 04:26:26;;;;;;;4.78;3.72;;;;;;;15.05;64.16;99776.53;4885980;28;123847;-76
2023/03/13 04:28:55;;;;;;;4.25;3.45;;;;;;;15.07;64.32;99774.56;4885415;28;123328;-76
2023/03/13 04:31:38;;;;;;;5.32;3.30;;;;;;;15.10;64.21;99779.69;4876504;28;114304;-76
2023/03/13 04:34:34;;;;;;;7.82;3.67;;;;;;;15.13;63.98;99774.09;4876923;28;114982;-76
2023/03/13 04:37:20;;;;;;;6.30;3.53;;;;;;;15.16;64.16;99774.69;4885048;28;124712;-76
2023/03/13 04:39:58;;;;;;;7.18;3.78;;;;;;;15.20;64.12;99767.31;4864902;28;122974;-76
2023/03/13 04:42:41;;;;;;;6.47;3.53;;;;;;;15.23;64.11;99758.19;4888379;28;114753;-76
2023/03/13 04:45:27;;;;;;;4.57;3.60;;;;;;;15.25;64.19;99749.06;4887220;28;115308;-76
2023/03/13 04:48:17;;;;;;;6.13;3.53;;;;;;;15.29;64.08;99747.84;4857532;28;124377;-75
2023/03/13 04:51:01;;;;;;;5.85;3.55;;;;;;;15.32;63.97;99736.94;4882106;28;123735;-76
2023/03/13 04:53:46;;;;;;;5.57;3.47;;;;;;;15.36;64.02;99727.69;4882884;28;114350;-75
2023/03/13 04:56:27;;;;;;;6.75;3.17;;;;;;;15.38;63.96;99725.75;4882055;28;114156;-76
2023/03/13 04:59:27;;;;;;;6.82;3.60;;;;;;;15.45;63.85;99719.91;4883003;28;123470;-76
2023/03/13 05:01:57;;;;;;;5.38;3.30;;;;;;;15.47;63.88;99723.31;4883411;28;126254;-75
2023/03/13 05:04:59;;;;;;;7.18;3.20;;;;;;;15.50;63.87;99720.34;4884346;28;114051;-76
2023/03/13 05:07:45;;;;;;;5.22;2.92;;;;;;;15.53;63.69;99720.13;4883930;28;114511;-75
2023/03/13 05:10:33;;;;;;;5.25;3.20;;;;;;;15.56;63.78;99714.53;4855612;28;124123;-76
2023/03/13 05:13:18;;;;;;;;;;;;;;;15.57;63.44;99713.53;4884342;28;124700;-75
2023/03/13 05:15:53;;;;;;;4.72;2.90;;;;;;;15.60;63.45;99707.13;4885887;28;113958;-75
2023/03/13 05:18:34;;;;;;;4.95;2.88;;;;;;;15.62;63.46;99710.50;4882865;28;114523;-76
2023/03/13 05:21:25;;;;;;;5.28;2.75;;;;;;;15.65;63.89;99703.09;4886220;28;125446;-76
2023/03/13 05:24:10;;;;;;;5.57;2.90;;;;;;;15.67;63.44;99698.47;4887003;28;123627;-75
2023/03/13 05:26:56;;;;;;;7.25;3.35;;;;;;;15.70;63.47;99698.19;4881971;28;115851;-76
2023/03/13 05:29:38;;;;;;;7.97;2.97;;;;;;;15.71;63.53;99702.56;4884025;28;114698;-76
2023/03/13 05:32:24;;;;;;;5.80;2.80;;;;;;;15.74;63.26;99693.47;4877064;28;125007;-76
2023/03/13 05:35:06;;;;;;;6.65;3.13;;;;;;;15.75;63.28;99696.00;4883022;28;123406;-76
2023/03/13 05:37:52;;;;;;;8.60;3.38;;;;;;;15.76;63.34;99687.03;4883506;28;114381;-76
2023/03/13 05:40:31;;;;;;;6.47;3.20;;;;;;;15.80;63.22;99684.06;4873272;28;113229;-76
2023/03/13 05:43:16;;;;;;;4.95;3.15;;;;;;;15.82;63.17;99679.44;4883183;28;124682;-76
2023/03/13 05:46:03;;;;;;;5.38;2.92;;;;;;;15.84;63.21;99682.84;4877531;28;126658;-76
2023/03/13 05:48:44;;;;;;;6.38;3.00;;;;;;;15.86;63.13;99691.56;4881544;28;113479;-75
2023/03/13 05:51:33;;;;;;;6.13;2.70;;;;;;;15.88;63.03;99695.81;4874412;28;114001;-75
2023/03/13 05:54:26;;;;;;;6.95;2.40;;;;;;;15.92;62.94;99707.06;4857028;28;125009;-76
2023/03/13 05:57:11;;;;;;;9.93;2.70;;;;;;;15.94;62.84;99703.28;4882263;28;125116;-75
2023/03/13 05:59:50;;;;;;;8.73;2.90;;;;;;;15.96;62.64;99687.13;4882715;28;114150;-75
2023/03/13 06:02:37;;;;;;;5.00;2.50;;;;;;;16.01;62.75;99703.63;4879367;28;114400;-75
2023/03/13 06:05:06;;;;;;;7.68;2.60;;;;;;;16.05;62.63;99691.69;4883886;28;123266;-76
2023/03/13 06:07:33;;;;;;;3.75;2.20;;;;;;;16.07;62.48;99700.41;4878459;28;122720;-75
2023/03/13 06:10:00;;;;;;;7.70;2.58;;;;;;;16.11;62.45;99701.00;4883061;28;114341;-75
2023/03/13 06:12:28;;;;;;;4.65;2.28;;;;;;;16.15;62.26;99691.72;4883761;28;113291;-75
2023/03/13 06:14:55;;;;;;;4.20;2.17;;;;;;;16.18;62.26;99690.59;4880240;28;124003;-76
2023/03/13 06:17:30;;;;;;;6.78;2.47;;;;;;;16.22;61.80;99702.72;4873805;28;123075;-76
2023/03/13 06:19:57;;;;;;;5.75;2.40;;;;;;;16.25;61.86;99702.44;4883742;28;114560;-76
2023/03/13 06:22:24;;;;;;;5.30;2.20;;;;;;;16.28;61.77;99699.53;4884594;28;113980;-76
2023/03/13 06:24:51;;;;;;;4.38;2.10;;;;;;;16.31;61.57;99701.91;4889173;28;124481;-76
2023/03/13 06:27:18;;;;;;;5.65;2.33;;;;;;;16.33;61.58;99691.94;4878139;28;124619;-75
2023/03/13 06:29:45;;;;;;;7.70;2.25;;;;;;;16.37;61.46;99695.19;4882126;28;114183;-75
2023/03/13 06:32:12;;;;;;;6.78;2.30;;;;;;;16.38;61.26;99697.72;4887505;28;115271;-76
2023/03/13 06:34:39;;;;;;;5.43;2.17;;;;;;;16.40;61.19;99674.38;4885691;28;123476;-76
2023/03/13 06:37:07;;;;;;;5.75;2.30;;;;;;;16.42;61.07;99688.44;4884930;28;124476;-75
2023/03/13 06:39:34;;;;;;;6.60;2.08;;;;;;;16.45;61.16;99682.84;4883748;28;114367;-76
2023/03/13 06:42:01;;;;;;;4.35;2.42;;;;;;;16.48;60.79;99685.25;4880415;28;113935;-75
2023/03/13 06:44:28;;;;;;;5.60;2.20;;;;;;;16.51;60.57;99687.63;4879785;28;127688;-76
2023/03/13 06:46:55;;;;;;;9.07;2.45;;;;;;;16.53;60.68;99683.00;4881582;28;123759;-76
2023/03/13 06:49:22;;;;;;;5.40;2.53;;;;;;;16.55;60.58;99677.53;4883897;28;113709;-75
2023/03/13 06:51:49;;;;;;;5.47;2.10;;;;;;;16.57;60.38;99686.25;4884596;28;116338;-75
2023/03/13 06:54:16;;;;;;;5.97;2.03;;;;;;;16.58;60.33;99677.25;4885796;28;124209;-74
2023/03/13 06:56:43;;;;;;;8.90;2.17;;;;;;;16.60;60.00;99691.34;4885238;28;124542;-73
2023/03/13 06:59:10;;;;;;;4.60;1.90;;;;;;;16.63;60.11;99695.56;4890883;28;113400;-74
2023/03/13 07:01:38;;;;;;;6.25;2.05;;;;;;;16.64;60.22;99687.41;4884199;28;113669;-75
2023/03/13 07:04:05;;;;;;;7.93;2.08;;;;;;;16.67;59.94;99683.59;4881777;28;124869;-74
2023/03/13 07:06:32;;;;;;;6.22;2.10;;;;;;;16.69;59.91;99689.69;4892843;28;124272;-75
2023/03/13 07:08:59;;;;;;;7.57;2.42;;;;;;;16.70;59.60;99686.00;4887588;28;115476;-74
2023/03/13 07:11:26;;;;;;;6.65;2.13;;;;;;;16.72;59.76;99689.38;4894796;28;115100;-75
2023/03/13 07:13:55;;;;;;;5.90;2.00;;;;;;;16.73;59.73;99680.41;4895315;28;123795;-74
2023/03/13 07:16:41;;;;;;;6.43;1.98;;;;;;;16.75;59.75;99678.44;4896185;28;124140;-74
2023/03/13 07:19:08;;;;;;;7.40;2.22;;;;;;;16.77;59.42;99683.66;4898605;28;113890;-74
2023/03/13 07:21:36;;;;;;;5.13;2.20;;;;;;;16.77;59.50;99679.13;4883182;28;113298;-74
2023/03/13 07:24:03;;;;;;;7.18;2.20;;;;;;;16.79;59.37;99674.50;4895299;28;123907;-74
2023/03/13 07:26:30;;;;;;;7.50;2.03;;;;;;;16.80;59.33;99678.88;4880547;28;123343;-74
2023/03/13 07:28:58;;;;;;;7.53;2.30;;;;;;;16.83;59.18;99681.28;4866813;28;113809;-74
2023/03/13 07:31:25;;;;;;;9.60;2.30;;;;;;;16.84;59.13;99680.31;4894129;28;114038;-74
2023/03/13 07:33:55;;;;;;;8.35;2.00;;;;;;;16.86;58.95;99675.66;4895476;28;124333;-74
2023/03/13 07:36:22;;;;;;;8.57;2.50;;;;;;;16.89;59.04;99670.03;4887657;28;123934;-74
2023/03/13 07:38:51;;;;;;;7.32;1.95;;;;;;;16.90;59.01;99666.38;4894860;28;114345;-74
2023/03/13 07:41:19;;;;;;;5.78;2.17;;;;;;;16.93;58.84;99671.47;4888372;28;113783;-73
2023/03/13 07:43:46;;;;;;;5.15;2.22;;;;;;;16.97;58.82;99676.50;4890662;28;124990;-74
2023/03/13 07:46:17;;;;;;;6.93;2.40;;;;;;;16.99;58.62;99669.19;4885984;28;123358;-75
2023/03/13 07:48:45;;;;;;;8.85;2.22;;;;;;;17.01;58.47;99672.56;4892003;28;113947;-74
2023/03/13 07:51:16;;;;;;;7.47;2.15;;;;;;;17.02;58.64;99675.13;4899861;28;113953;-74
2023/03/13 07:53:46;;;;;;;5.57;2.10;;;;;;;17.06;58.68;99683.72;4892264;28;123786;-74
2023/03/13 07:56:16;;;;;;;9.32;2.03;;;;;;;17.08;58.73;99673.72;4893199;28;123284;-75
2023/03/13 07:58:44;;;;;;;6.13;2.40;;;;;;;17.10;58.70;99677.09;4886276;28;114291;-75
2023/03/13 08:01:13;;;;;;;6.40;2.30;;;;;;;17.12;58.39;99675.13;4890012;28;115712;-74
2023/03/13 08:03:40;;;;;;;6.55;1.75;;;;;;;17.15;58.33;99663.31;4891722;28;123736;-74
2023/03/13 08:06:11;;;;;;;6.07;2.20;;;;;;;17.17;58.39;99677.38;4888201;28;123393;-74
2023/03/13 08:08:38;;;;;;;10.88;2.50;;;;;;;17.18;58.23;99674.56;4887361;28;114170;-74
2023/03/13 08:11:09;;;;;;;7.18;2.15;;;;;;;17.18;58.34;99677.25;4889239;28;113220;-74
2023/03/13 08:13:37;;;;;;;9.20;2.15;;;;;;;17.19;58.37;99676.25;4887841;28;124045;-75
2023/03/13 08:16:12;;;;;;;7.75;2.22;;;;;;;17.19;58.22;99676.25;4883454;28;124021;-74
2023/03/13 08:18:41;;;;;;;;;;;;;;;17.18;58.37;99674.56;4888707;28;114499;-74
2023/03/13 08:21:11;;;;;;;6.72;2.03;;;;;;;17.23;58.26;99683.00;4873890;28;113732;-75
2023/03/13 08:23:38;;;;;;;7.38;2.00;;;;;;;17.25;58.30;99665.00;4873128;28;124130;-74
2023/03/13 08:26:08;;;;;;;8.20;2.00;;;;;;;17.29;58.30;99660.19;4875114;28;123887;-75
2023/03/13 08:28:36;;;;;;;7.07;1.80;;;;;;;17.35;58.04;99654.28;4875816;28;115551;-74
2023/03/13 08:31:12;;;;;;;5.13;2.00;;;;;;;17.40;58.29;99659.19;4885574;28;113268;-74
2023/03/13 08:33:41;;;;;;;4.78;2.03;;;;;;;17.45;58.14;99654.28;4888644;28;123624;-75
2023/03/13 08:36:16;;;;;;;5.95;2.03;;;;;;;17.48;57.99;99649.47;4890414;28;123770;-74
2023/03/13 08:38:44;;;;;;;7.80;1.95;;;;;;;17.52;57.85;99644.69;4886957;28;114611;-74
2023/03/13 08:41:15;;;;;;;8.15;2.00;;;;;;;17.57;57.86;99653.13;4888706;28;113513;-74
2023/03/13 08:43:43;;;;;;;7.03;2.30;;;;;;;17.60;57.98;99636.78;4885501;28;125285;-74
2023/03/13 08:46:10;;;;;;;6.57;2.10;;;;;;;17.64;57.78;99654.25;4891017;28;123393;-74
2023/03/13 08:48:38;;;;;;;6.00;1.98;;;;;;;17.65;57.56;99658.63;4890215;28;113986;-74
2023/03/13 08:51:08;;;;;;;5.90;1.98;;;;;;;17.61;57.77;99646.50;4885412;28;114899;-75
2023/03/13 08:53:36;;;;;;;7.18;2.15;;;;;;;17.61;57.48;99649.19;4877978;28;124776;-75
2023/03/13 08:56:04;;;;;;;6.55;1.98;;;;;;;17.61;57.71;99648.31;4866073;28;123233;-74
2023/03/13 08:58:31;;;;;;;6.68;1.67;;;;;;;17.60;57.62;99636.78;4877422;28;113593;-74
2023/03/13 09:01:08;;;;;;;5.85;1.83;;;;;;;17.60;57.49;99630.59;4875343;28;113913;-74
2023/03/13 09:03:36;;;;;;;7.10;1.90;;;;;;;17.59;57.36;99640.44;4875305;28;124705;-74
2023/03/13 09:06:03;;;;;;;4.20;1.90;;;;;;;17.60;57.20;99631.41;4876697;28;124830;-74
2023/03/13 09:08:33;;;;;;;6.53;1.55;;;;;;;17.61;57.29;99610.84;4878340;28;114072;-74
2023/03/13 09:11:03;;;;;;;3.53;1.75;;;;;;;17.63;57.11;99628.47;4879666;28;114322;-74
2023/03/13 09:13:33;;;;;;;4.80;1.80;;;;;;;17.67;57.06;99635.22;4877211;28;126392;-74
2023/03/13 09:16:03;;;;;;;6.20;1.52;;;;;;;17.70;56.94;99631.38;4877850;28;124095;-74
2023/03/13 09:18:30;;;;;;;3.83;1.48;;;;;;;17.75;56.78;99633.66;4876297;28;114401;-73
2023/03/13 09:20:58;;;;;;;4.57;1.73;;;;;;;17.79;56.99;99613.63;4888770;28;113701;-74
2023/03/13 09:23:25;;;;;;;5.60;1.58;;;;;;;17.84;56.84;99612.22;4891651;28;125030;-74
2023/03/13 09:25:55;;;;;;;3.35;1.50;;;;;;;17.91;56.99;99612.47;4887928;28;123683;-74
2023/03/13 09:28:24;;;;;;;3.95;1.45;;;;;;;17.99;56.62;99607.22;4889313;28;114828;-74
2023/03/13 09:30:52;;;;;;;4.65;1.42;;;;;;;18.03;56.68;99605.09;4890414;28;112881;-74
2023/03/13 09:33:24;;;;;;;4.88;1.60;;;;;;;18.09;56.99;99605.34;4884095;28;125346;-74
2023/03/13 09:35:51;;;;;;;4.90;1.90;;;;;;;18.16;56.61;99592.22;4879014;28;123925;-74
2023/03/13 09:38:21;;;;;;;5.35;1.75;;;;;;;18.20;56.35;99598.13;4883520;28;115296;-74
2023/03/13 09:40:51;;;;;;;6.35;1.52;;;;;;;18.24;56.32;99580.75;4888050;28;114902;-74
2023/03/13 09:43:44;;;;;;;6.40;2.03;;;;;;;18.28;56.38;99571.41;4880781;28;123502;-74
2023/03/13 09:46:25;;;;;;;5.35;1.90;;;;;;;18.36;56.59;99574.16;4899946;28;123892;-73
2023/03/13 09:49:38;;;;;;;5.60;2.00;;;;;;;18.47;56.72;99560.53;4896206;28;114784;-75
2023/03/13 09:52:39;;;;;;;4.95;1.50;;;;;;;18.59;56.70;99552.28;4893915;28;113942;-75
2023/03/13 09:55:21;;;;;;;5.20;1.50;;;;;;;18.72;56.34;99558.09;4877728;28;123948;-75
2023/03/13 09:58:01;;;;;;;6.57;1.88;;;;;;;18.83;56.29;99555.22;4871204;28;123545;-74
2023/03/13 10:00:30;;;;;;;5.82;1.75;;;;;;;18.95;56.01;99536.19;4878904;28;113897;-74
2023/03/13 10:03:15;;;;;;;4.43;1.55;;;;;;;19.04;55.78;99535.28;4880571;28;113892;-75
2023/03/13 10:05:48;;;;;;;4.85;1.80;;;;;;;19.14;55.35;99541.41;4889935;28;123602;-74
2023/03/13 10:08:21;;;;;;;3.97;1.80;;;;;;;19.21;55.24;99547.84;4880402;28;123766;-74
2023/03/13 10:10:56;;;;;;;5.78;1.70;;;;;;;19.24;55.01;99544.81;4866139;28;113898;-74
2023/03/13 10:13:56;;;;;;;3.63;1.30;;;;;;;19.28;54.77;99557.94;4875818;28;113727;-74
2023/03/13 10:16:28;;;;;;;4.00;1.70;;;;;;;19.27;54.38;99546.38;4877102;28;124181;-74
2023/03/13 10:18:57;;;;;;;3.60;1.42;;;;;;;19.26;54.32;99545.50;4874274;28;123542;-74
2023/03/13 10:21:35;;;;;;;4.03;1.20;;;;;;;19.26;54.21;99534.75;4882167;28;114215;-74
2023/03/13 10:24:15;;;;;;;3.63;1.40;;;;;;;19.28;54.04;99539.16;4890149;28;114279;-71
2023/03/13 10:26:42;;;;;;;3.83;1.20;;;;;;;19.30;54.06;99529.09;4891924;28;123901;-71
2023/03/13 10:29:24;;;;;;;4.15;1.35;;;;;;;19.30;53.67;99523.72;4887868;28;124471;-71
2023/03/13 10:32:00;;;;;;;2.35;1.20;;;;;;;19.33;53.78;99528.78;4888246;28;115111;-72
2023/03/13 10:34:43;;;;;;;1.95;1.30;;;;;;;19.39;53.73;99522.78;4882545;28;114989;-72
2023/03/13 10:37:18;;;;;;;2.47;1.20;;;;;;;19.42;53.41;99523.31;4874320;28;124127;-71
2023/03/13 10:39:45;;;;;;;2.50;1.27;;;;;;;19.46;52.81;99545.31;4871290;28;123769;-71
2023/03/13 10:42:21;;;;;;;4.43;1.45;;;;;;;19.46;52.91;99518.47;4875522;28;114725;-71
2023/03/13 10:44:48;;;;;;;1.95;1.17;;;;;;;19.46;53.11;99529.19;4887590;28;114274;-71
2023/03/13 10:47:18;;;;;;;3.30;1.17;;;;;;;19.48;52.85;99518.28;4888840;28;123775;-71
2023/03/13 10:49:50;;;;;;;5.88;1.80;;;;;;;19.47;52.67;99506.69;4891959;28;123870;-71
2023/03/13 10:52:47;;;;;;;4.07;1.55;;;;;;;19.47;53.00;99504.00;4873631;28;114659;-71
2023/03/13 10:55:22;;;;;;;2.90;1.20;;;;;;;19.49;52.51;99501.19;4876871;28;114237;-71
2023/03/13 10:58:21;;;;;;;1.58;1.02;;;;;;;19.52;52.82;99496.31;4875559;28;123756;-71
2023/03/13 11:00:49;;;;;;;2.88;1.20;;;;;;;19.57;52.74;99494.00;4873573;28;124919;-71
2023/03/13 11:03:26;;;;;;;3.35;1.00;;;;;;;19.63;52.60;99498.72;4876734;28;113178;-71
2023/03/13 11:05:56;;;;;;;3.83;1.30;;;;;;;19.67;52.29;99503.78;4875222;28;114073;-71
2023/03/13 11:08:24;;;;;;;2.85;1.10;;;;;;;19.71;52.23;99515.91;4874972;28;125306;-71
2023/03/13 11:11:04;;;;;;;3.30;1.30;;;;;;;19.75;52.19;99485.88;4886102;28;123771;-71
2023/03/13 11:13:43;;;;;;;2.85;1.10;;;;;;;19.77;52.22;99488.41;4878735;28;114384;-71
2023/03/13 11:16:22;;;;;;;2.28;1.10;;;;;;;19.79;51.94;99481.03;4889293;28;114171;-71
2023/03/13 11:19:06;;;;;;;1.95;1.02;;;;;;;19.81;52.09;99479.00;4884470;28;124783;-71
2023/03/13 11:22:09;;;;;;;3.90;1.25;;;;;;;19.83;52.04;99482.38;4876920;28;122658;-71
2023/03/13 11:24:45;;;;;;;2.60;1.10;;;;;;;19.85;51.81;99475.00;4884395;28;115036;-71
2023/03/13 11:27:30;;;;;;;2.28;1.00;;;;;;;19.86;51.77;99474.00;4884469;28;114956;-72
2023/03/13 11:30:04;;;;;;;2.80;1.10;;;;;;;19.90;51.87;99479.91;4879133;28;124261;-71
2023/03/13 11:32:46;;;;;;;4.68;1.00;;;;;;;19.94;51.71;99463.28;4885170;28;123495;-71
2023/03/13 11:35:22;;;;;;;3.45;1.10;;;;;;;19.98;51.33;99483.44;4883701;28;114367;-72
2023/03/13 11:37:54;;;;;;;3.33;1.00;;;;;;;20.02;51.10;99471.38;4888758;28;114399;-71
2023/03/13 11:40:38;;;;;;;1.92;0.90;;;;;;;20.06;51.15;99471.03;4884339;28;124013;-72
2023/03/13 11:43:16;;;;;;;1.50;1.08;;;;;;;20.10;50.99;99472.38;4889023;28;122654;-71
2023/03/13 11:46:12;;;;;;;2.47;1.00;;;;;;;20.11;50.76;99460.63;4887387;28;114437;-72
2023/03/13 11:48:54;;;;;;;2.70;0.93;;;;;;;20.12;50.36;99470.41;4887840;28;114217;-71
2023/03/13 11:51:59;;;;;;;3.28;1.13;;;;;;;20.15;50.49;99454.75;4874536;28;124376;-71